createdAt,value
2023-07-14T00:03:02.041Z,13.00
2023-07-14T00:06:04.140Z,10.40
2023-07-14T00:09:25.032Z,13.52
2023-07-14T00:12:26.950Z,11.07
2023-07-14T00:15:29.340Z,14.45
2023-07-14T00:18:32.006Z,13.98
2023-07-14T00:21:33.997Z,12.77
2023-07-14T00:24:35.961Z,13.48
2023-07-14T00:27:38.195Z,14.27
2023-07-14T00:30:40.778Z,11.43
2023-07-14T00:33:51.086Z,14.40
2023-07-14T00:36:53.583Z,11.38
2023-07-14T00:39:55.478Z,17.95
2023-07-14T00:42:59.459Z,14.57
2023-07-14T00:46:03.233Z,32.38
2023-07-14T00:49:13.185Z,36.22
2023-07-14T00:52:25.293Z,28.30
2023-07-14T00:55:53.177Z,41.67
2023-07-14T00:58:55.195Z,31.97
2023-07-14T01:02:26.509Z,40.30
2023-07-14T01:05:29.587Z,61.70
2023-07-14T01:08:33.021Z,33.05
2023-07-14T01:11:49.158Z,33.10
2023-07-14T01:14:53.417Z,28.97
2023-07-14T01:17:55.849Z,27.67
2023-07-14T01:20:57.845Z,26.73
2023-07-14T01:24:15.387Z,17.58
2023-07-14T01:30:38.379Z,20.10
2023-07-14T01:33:40.325Z,15.60
2023-07-14T01:36:44.020Z,11.45
2023-07-14T01:39:47.608Z,13.30
2023-07-14T01:43:02.218Z,14.02
2023-07-14T01:46:08.913Z,12.57
2023-07-14T01:49:29.185Z,10.30
2023-07-14T01:52:32.945Z,28.45
2023-07-14T01:55:37.803Z,15.98
2023-07-14T01:59:05.715Z,19.00
2023-07-14T02:02:14.380Z,46.97
2023-07-14T02:05:28.162Z,15.75
2023-07-14T02:08:30.540Z,18.40
2023-07-14T02:11:32.659Z,14.45
2023-07-14T02:14:51.771Z,14.85
2023-07-14T02:17:56.158Z,22.90
2023-07-14T02:20:59.450Z,17.15
2023-07-14T02:24:02.151Z,29.63
2023-07-14T02:27:05.346Z,88.95
2023-07-14T02:30:14.938Z,25.75
2023-07-14T02:33:25.582Z,42.23
2023-07-14T02:36:45.393Z,46.97
2023-07-14T02:39:49.945Z,71.18
2023-07-14T02:42:52.940Z,71.60
2023-07-14T02:46:01.856Z,29.17
2023-07-14T02:49:03.874Z,36.43
2023-07-14T02:52:07.217Z,29.23
2023-07-14T02:55:09.735Z,36.58
2023-07-14T02:58:11.706Z,32.70
2023-07-14T03:01:13.936Z,16.60
2023-07-14T03:04:16.010Z,63.40
2023-07-14T03:07:18.444Z,41.47
2023-07-14T03:10:20.591Z,44.63
2023-07-14T03:13:23.175Z,23.77
2023-07-14T03:16:27.206Z,14.35
2023-07-14T03:19:29.270Z,22.67
2023-07-14T03:22:32.329Z,33.90
2023-07-14T03:25:34.965Z,23.30
2023-07-14T03:28:37.965Z,56.22
2023-07-14T03:31:39.989Z,30.48
2023-07-14T03:34:42.436Z,19.73
2023-07-14T03:37:44.418Z,13.40
2023-07-14T03:40:46.692Z,14.27
2023-07-14T03:43:48.640Z,15.27
2023-07-14T03:46:50.901Z,11.80
2023-07-14T03:49:52.827Z,11.43
2023-07-14T03:52:54.721Z,12.90
2023-07-14T03:55:56.845Z,12.40
2023-07-14T03:58:58.857Z,13.25
2023-07-14T04:02:00.870Z,20.12
2023-07-14T04:05:02.864Z,18.50
2023-07-14T04:08:05.354Z,10.88
2023-07-14T04:11:07.401Z,20.62
2023-07-14T04:14:12.169Z,14.85
2023-07-14T04:17:14.110Z,14.23
2023-07-14T04:20:16.071Z,13.10
2023-07-14T04:23:19.467Z,19.70
2023-07-14T04:26:22.528Z,11.70
2023-07-14T04:29:24.895Z,9.73
2023-07-14T04:32:27.842Z,12.52
2023-07-14T04:35:29.875Z,16.53
2023-07-14T04:38:31.982Z,14.70
2023-07-14T04:41:35.865Z,13.20
2023-07-14T04:44:38.737Z,12.77
2023-07-14T04:47:40.708Z,21.70
2023-07-14T04:50:45.289Z,14.43
2023-07-14T04:53:47.245Z,13.73
2023-07-14T04:56:49.146Z,8.85
2023-07-14T04:59:51.127Z,10.57
2023-07-14T05:02:53.312Z,9.90
2023-07-14T05:05:55.637Z,11.00
2023-07-14T05:08:57.662Z,9.48
2023-07-14T05:11:59.680Z,10.60
2023-07-14T05:15:11.834Z,9.55
2023-07-14T05:18:13.959Z,11.10
2023-07-14T05:21:16.139Z,11.47
2023-07-14T05:24:18.149Z,8.93
2023-07-14T05:27:21.297Z,9.05
2023-07-14T05:30:23.654Z,10.07
2023-07-14T05:33:25.629Z,9.63
2023-07-14T05:36:27.562Z,8.20
2023-07-14T05:39:29.690Z,8.52
2023-07-14T05:42:31.634Z,9.50
2023-07-14T05:45:34.167Z,10.50
2023-07-14T05:48:36.465Z,8.60
2023-07-14T05:51:38.449Z,8.33
2023-07-14T05:54:40.914Z,9.25
2023-07-14T05:57:45.154Z,8.75
2023-07-14T06:00:47.257Z,8.55
2023-07-14T06:03:49.404Z,8.73
2023-07-14T06:06:51.499Z,7.87
2023-07-14T06:09:53.430Z,9.85
2023-07-14T06:12:55.367Z,8.32
2023-07-14T06:15:57.897Z,7.43
2023-07-14T06:19:00.028Z,8.88
2023-07-14T06:22:01.925Z,6.90
2023-07-14T06:25:05.203Z,7.95
2023-07-14T06:28:08.452Z,8.40
2023-07-14T06:31:12.977Z,8.25
2023-07-14T06:34:15.157Z,8.30
2023-07-14T06:37:17.380Z,6.67
2023-07-14T06:40:21.831Z,7.43
2023-07-14T06:43:24.018Z,6.37
2023-07-14T06:46:26.091Z,6.20
2023-07-14T06:49:29.244Z,11.32
2023-07-14T06:52:31.903Z,6.33
2023-07-14T06:55:34.919Z,7.90
2023-07-14T06:58:37.342Z,7.62
2023-07-14T07:01:39.326Z,6.10
2023-07-14T07:04:41.517Z,6.22
2023-07-14T07:07:43.671Z,8.90
2023-07-14T07:10:46.803Z,8.60
2023-07-14T07:13:48.785Z,6.75
2023-07-14T07:16:50.874Z,9.23
2023-07-14T07:19:52.861Z,6.57
2023-07-14T07:22:54.819Z,6.47
2023-07-14T07:25:57.085Z,7.25
2023-07-14T07:28:59.312Z,7.35
2023-07-14T07:32:01.379Z,6.97
2023-07-14T07:35:04.404Z,8.40
2023-07-14T07:38:06.600Z,6.80
2023-07-14T07:41:08.597Z,6.05
2023-07-14T07:44:10.727Z,7.18
2023-07-14T07:47:13.972Z,7.80
2023-07-14T07:50:16.207Z,5.78
2023-07-14T07:53:18.192Z,7.50
2023-07-14T07:56:20.217Z,8.07
2023-07-14T07:59:22.210Z,6.82
2023-07-14T08:02:24.350Z,6.65
2023-07-14T08:05:26.691Z,7.15
2023-07-14T08:08:29.081Z,8.30
2023-07-14T08:11:31.555Z,6.68
2023-07-14T08:14:50.513Z,7.43
2023-07-14T08:17:56.548Z,6.82
2023-07-14T08:21:00.159Z,7.93
2023-07-14T08:24:02.256Z,6.30
2023-07-14T08:27:04.437Z,8.40
2023-07-14T08:30:09.341Z,10.95
2023-07-14T08:33:11.295Z,6.97
2023-07-14T08:36:14.623Z,6.68
2023-07-14T08:39:17.713Z,8.90
2023-07-14T08:42:31.795Z,7.75
2023-07-14T08:45:38.908Z,7.65
2023-07-14T08:48:47.304Z,7.87
2023-07-14T08:51:53.870Z,7.53
2023-07-14T08:54:55.774Z,6.77
2023-07-14T08:58:10.467Z,6.43
2023-07-14T09:01:20.337Z,6.68
2023-07-14T09:04:26.840Z,7.25
2023-07-14T09:07:30.020Z,7.93
2023-07-14T09:10:58.823Z,8.90
2023-07-14T09:14:29.630Z,6.95
2023-07-14T09:17:37.673Z,7.32
2023-07-14T09:20:39.597Z,10.45
2023-07-14T09:23:57.846Z,7.53
2023-07-14T09:27:00.063Z,11.60
2023-07-14T09:30:03.201Z,7.80
2023-07-14T09:33:10.222Z,6.75
2023-07-14T09:36:12.686Z,9.13
2023-07-14T09:39:22.993Z,7.07
2023-07-14T09:42:31.651Z,6.93
2023-07-14T09:45:36.143Z,7.47
2023-07-14T09:48:44.779Z,6.85
2023-07-14T09:52:11.554Z,9.45
2023-07-14T09:55:15.122Z,8.00
2023-07-14T09:58:18.284Z,6.77
2023-07-14T10:01:20.375Z,8.20
2023-07-14T10:04:28.119Z,9.00
2023-07-14T10:07:41.920Z,8.63
2023-07-14T10:10:45.357Z,7.65
2023-07-14T10:13:58.802Z,9.53
2023-07-14T10:17:00.927Z,9.27
2023-07-14T10:20:06.159Z,7.00
2023-07-14T10:23:17.566Z,10.18
2023-07-14T10:26:19.605Z,7.10
2023-07-14T10:29:25.187Z,8.17
2023-07-14T10:32:42.313Z,10.00
2023-07-14T10:35:45.048Z,8.07
2023-07-14T10:39:02.913Z,7.97
2023-07-14T10:42:16.271Z,8.45
2023-07-14T10:45:18.486Z,7.40
2023-07-14T10:48:43.017Z,8.15
2023-07-14T10:51:53.579Z,7.87
2023-07-14T10:55:04.826Z,8.30
2023-07-14T10:58:20.174Z,7.78
2023-07-14T11:01:32.659Z,6.63
2023-07-14T11:04:44.241Z,7.55
2023-07-14T11:07:46.458Z,8.13
2023-07-14T11:10:52.224Z,9.05
2023-07-14T11:14:22.093Z,8.88
2023-07-14T11:17:46.033Z,9.37
2023-07-14T11:20:53.786Z,7.97
2023-07-14T11:24:01.467Z,8.23
2023-07-14T11:27:29.515Z,8.32
2023-07-14T11:30:37.218Z,7.95
2023-07-14T11:33:50.824Z,7.70
2023-07-14T11:36:59.993Z,7.75
2023-07-14T11:40:08.154Z,9.82
2023-07-14T11:43:19.533Z,7.60
2023-07-14T11:46:23.690Z,7.95
2023-07-14T11:49:46.151Z,9.73
2023-07-14T11:53:12.906Z,9.77
2023-07-14T11:56:27.371Z,8.13
2023-07-14T11:59:31.639Z,7.40
2023-07-14T12:02:36.603Z,8.45
2023-07-14T12:05:41.105Z,8.03
2023-07-14T12:08:43.488Z,7.37
2023-07-14T12:11:58.228Z,7.50
2023-07-14T12:15:00.285Z,8.85
2023-07-14T12:18:38.143Z,10.13
2023-07-14T12:21:59.133Z,8.83
2023-07-14T12:25:01.257Z,7.82
2023-07-14T12:28:04.920Z,7.82
2023-07-14T12:31:14.578Z,8.18
2023-07-14T12:34:24.768Z,8.35
2023-07-14T12:37:26.774Z,8.60
2023-07-14T12:40:33.112Z,7.50
2023-07-14T12:43:42.116Z,7.55
2023-07-14T12:46:44.225Z,10.63
2023-07-14T12:49:51.875Z,7.32
2023-07-14T12:52:54.196Z,8.20
2023-07-14T12:55:56.132Z,7.62
2023-07-14T12:59:02.655Z,9.93
2023-07-14T13:02:05.273Z,7.97
2023-07-14T13:05:14.977Z,8.45
2023-07-14T13:08:22.071Z,8.33
2023-07-14T13:11:29.349Z,9.25
2023-07-14T13:14:47.842Z,7.18
2023-07-14T13:17:51.317Z,7.40
2023-07-14T13:20:56.249Z,7.53
2023-07-14T13:24:07.561Z,8.87
2023-07-14T13:27:20.336Z,8.70
2023-07-14T13:30:32.824Z,7.57
2023-07-14T13:33:34.861Z,8.30
2023-07-14T13:36:37.033Z,7.47
2023-07-14T13:39:46.599Z,9.77
2023-07-14T13:42:51.543Z,7.72
2023-07-14T13:46:07.797Z,7.30
2023-07-14T13:49:09.740Z,7.75
2023-07-14T13:52:17.210Z,11.57
2023-07-14T13:55:23.357Z,7.50
2023-07-14T13:58:25.326Z,7.10
2023-07-14T14:01:29.350Z,9.70
2023-07-14T14:04:31.426Z,9.23
2023-07-14T14:07:33.459Z,8.88
2023-07-14T14:10:35.557Z,10.23
2023-07-14T14:13:37.640Z,7.78
2023-07-14T14:16:39.832Z,8.40
2023-07-14T14:19:41.983Z,7.85
2023-07-14T14:22:45.307Z,10.98
2023-07-14T14:25:47.628Z,6.70
2023-07-14T14:28:49.565Z,7.10
2023-07-14T14:31:51.472Z,7.55
2023-07-14T14:34:58.948Z,8.30
2023-07-14T14:38:11.644Z,7.10
2023-07-14T14:41:22.361Z,7.80
2023-07-14T14:44:25.123Z,8.32
2023-07-14T14:47:27.174Z,7.62
2023-07-14T14:50:29.284Z,8.55
2023-07-14T14:53:35.582Z,8.40
2023-07-14T14:56:42.190Z,7.70
2023-07-14T14:59:46.597Z,8.85
2023-07-14T15:02:52.659Z,7.35
2023-07-14T15:05:54.854Z,8.20
2023-07-14T15:08:56.849Z,7.97
2023-07-14T15:11:59.048Z,7.17
2023-07-14T15:15:01.119Z,8.25
2023-07-14T15:18:03.751Z,8.10
2023-07-14T15:21:14.601Z,8.15
2023-07-14T15:24:16.686Z,7.57
2023-07-14T15:27:27.282Z,7.00
2023-07-14T15:30:31.952Z,7.20
2023-07-14T15:33:33.999Z,8.52
2023-07-14T15:36:35.995Z,10.40
2023-07-14T15:39:37.974Z,7.78
2023-07-14T15:42:39.973Z,9.13
2023-07-14T15:45:42.121Z,7.60
2023-07-14T15:48:47.409Z,8.80
2023-07-14T15:51:49.403Z,11.70
2023-07-14T15:54:51.499Z,7.93
2023-07-14T15:57:53.486Z,9.03
2023-07-14T16:00:58.072Z,7.75
2023-07-14T16:04:02.460Z,8.07
2023-07-14T16:07:05.233Z,7.53
2023-07-14T16:10:13.236Z,6.90
2023-07-14T16:13:18.614Z,6.63
2023-07-14T16:16:20.906Z,7.22
2023-07-14T16:19:22.979Z,8.35
2023-07-14T16:22:25.428Z,7.22
2023-07-14T16:25:30.009Z,6.65
2023-07-14T16:28:42.477Z,7.77
2023-07-14T16:31:44.396Z,7.62
2023-07-14T16:34:47.703Z,7.53
2023-07-14T16:37:52.385Z,7.30
2023-07-14T16:40:54.349Z,7.60
2023-07-14T16:43:57.583Z,6.57
2023-07-14T16:47:03.968Z,6.97
2023-07-14T16:50:11.155Z,8.30
2023-07-14T16:53:17.172Z,8.77
2023-07-14T16:56:19.186Z,8.20
2023-07-14T16:59:21.562Z,6.83
2023-07-14T17:02:26.202Z,8.45
2023-07-14T17:05:35.746Z,8.32
2023-07-14T17:08:43.188Z,6.68
2023-07-14T17:11:45.619Z,7.78
2023-07-14T17:14:47.850Z,7.10
2023-07-14T17:17:50.246Z,7.40
2023-07-14T17:20:53.632Z,7.60
2023-07-14T17:23:57.782Z,10.13
2023-07-14T17:27:00.867Z,7.20
2023-07-14T17:30:21.398Z,6.63
2023-07-14T17:33:29.634Z,6.72
2023-07-14T17:36:39.871Z,6.80
2023-07-14T17:39:47.625Z,7.97
2023-07-14T17:42:50.739Z,7.65
2023-07-14T17:45:52.780Z,7.83
2023-07-14T17:48:57.680Z,9.20
2023-07-14T17:52:00.314Z,7.43
2023-07-14T17:55:02.242Z,7.40
2023-07-14T17:58:11.695Z,8.43
2023-07-14T18:01:17.085Z,9.40
2023-07-14T18:04:22.072Z,7.22
2023-07-14T18:07:24.270Z,7.97
2023-07-14T18:10:28.949Z,9.65
2023-07-14T18:13:41.147Z,8.38
2023-07-14T18:16:43.262Z,7.40
2023-07-14T18:19:45.330Z,10.20
2023-07-14T18:22:49.118Z,9.32
2023-07-14T18:25:51.213Z,9.18
2023-07-14T18:28:53.256Z,8.57
2023-07-14T18:31:56.470Z,8.90
2023-07-14T18:35:01.305Z,8.18
2023-07-14T18:38:06.537Z,7.93
2023-07-14T18:41:17.944Z,8.45
2023-07-14T18:44:19.985Z,8.15
2023-07-14T18:47:22.014Z,11.83
2023-07-14T18:50:24.070Z,8.73
2023-07-14T18:53:27.744Z,9.35
2023-07-14T18:56:29.894Z,8.95
2023-07-14T18:59:31.960Z,10.52
2023-07-14T19:02:34.955Z,8.20
2023-07-14T19:05:37.044Z,9.80
2023-07-14T19:08:39.424Z,9.00
2023-07-14T19:11:43.145Z,12.10
2023-07-14T19:14:45.180Z,10.27
2023-07-14T19:17:49.281Z,13.00
2023-07-14T19:20:57.698Z,9.02
2023-07-14T19:24:00.826Z,11.77
2023-07-14T19:27:02.969Z,8.80
2023-07-14T19:30:13.396Z,8.73
2023-07-14T19:33:18.985Z,9.13
2023-07-14T19:36:21.716Z,9.52
2023-07-14T19:39:23.980Z,9.43
2023-07-14T19:42:26.932Z,8.75
2023-07-14T19:45:30.168Z,9.73
2023-07-14T19:48:32.203Z,11.60
2023-07-14T19:51:34.805Z,9.73
2023-07-14T19:54:36.859Z,8.23
2023-07-14T19:57:39.427Z,10.80
2023-07-14T20:00:44.929Z,8.00
2023-07-14T20:03:48.559Z,10.27
2023-07-14T20:06:50.749Z,7.85
2023-07-14T20:12:59.173Z,8.93
2023-07-14T20:16:01.359Z,9.82
2023-07-14T20:19:03.529Z,8.00
2023-07-14T20:22:14.656Z,8.85
2023-07-14T20:25:18.976Z,9.05
2023-07-14T20:28:24.560Z,10.18
2023-07-14T20:31:26.893Z,10.10
2023-07-14T20:34:28.935Z,12.83
2023-07-14T20:37:31.839Z,8.70
2023-07-14T20:40:33.886Z,10.30
2023-07-14T20:43:35.875Z,10.13
2023-07-14T20:46:41.544Z,9.15
2023-07-14T20:49:46.000Z,12.33
2023-07-14T20:52:49.363Z,10.85
2023-07-14T20:55:56.371Z,10.32
2023-07-14T20:58:58.941Z,11.25
2023-07-14T21:02:00.923Z,11.00
2023-07-14T21:05:03.167Z,11.33
2023-07-14T21:08:24.020Z,10.23
2023-07-14T21:11:28.265Z,11.52
2023-07-14T21:14:30.174Z,12.98
2023-07-14T21:17:32.155Z,17.33
2023-07-14T21:20:34.379Z,10.63
2023-07-14T21:23:37.141Z,10.70
2023-07-14T21:26:39.060Z,9.20
2023-07-14T21:29:41.536Z,10.07
2023-07-14T21:32:43.612Z,11.10
2023-07-14T21:35:46.647Z,10.90
2023-07-14T21:38:48.530Z,10.43
2023-07-14T21:41:51.974Z,11.57
2023-07-14T21:44:54.027Z,10.50
2023-07-14T21:47:56.160Z,10.25
2023-07-14T21:51:02.071Z,10.57
2023-07-14T21:54:04.705Z,11.88
2023-07-14T21:57:10.713Z,11.50
2023-07-14T22:00:18.852Z,13.35
2023-07-14T22:03:22.541Z,14.40
2023-07-14T22:06:26.253Z,11.57
2023-07-14T22:09:28.595Z,13.40
2023-07-14T22:12:30.599Z,13.13
2023-07-14T22:15:32.559Z,10.70
2023-07-14T22:18:45.751Z,13.98
2023-07-14T22:21:49.080Z,12.60
2023-07-14T22:24:51.166Z,15.70
2023-07-14T22:27:53.233Z,12.52
2023-07-14T22:30:56.349Z,12.02
2023-07-14T22:34:00.865Z,15.68
2023-07-14T22:37:02.795Z,10.40
2023-07-14T22:40:05.385Z,12.27
2023-07-14T22:43:13.086Z,11.88
2023-07-14T22:46:15.320Z,13.05
2023-07-14T22:49:17.597Z,11.48
2023-07-14T22:52:19.544Z,12.93
2023-07-14T22:55:22.488Z,14.25
2023-07-14T22:58:26.906Z,10.95
2023-07-14T23:01:32.536Z,9.60
2023-07-14T23:04:34.675Z,10.90
2023-07-14T23:07:36.671Z,12.27
2023-07-14T23:10:47.369Z,11.63
2023-07-14T23:13:49.908Z,9.45
2023-07-14T23:16:51.945Z,11.48
2023-07-14T23:19:53.848Z,9.73
2023-07-14T23:22:55.877Z,10.17
2023-07-14T23:25:57.879Z,8.63
2023-07-14T23:28:59.938Z,9.90
2023-07-14T23:32:02.232Z,9.75
2023-07-14T23:35:05.520Z,9.98
2023-07-14T23:38:08.605Z,9.30
2023-07-14T23:41:12.969Z,8.32
2023-07-14T23:44:19.679Z,8.90
2023-07-14T23:47:21.558Z,10.75
2023-07-14T23:50:25.852Z,9.45
2023-07-14T23:53:35.070Z,10.43
2023-07-14T23:56:38.088Z,8.30
2023-07-14T23:59:40.394Z,9.02
